Time;durP1;ratioP1;P1;durP2;ratioP2;P2;SDS_P1;SDS_P2;PMS_P1;PMS_P2;Temp;Humidity;BMP_temperature;BMP_pressure;BME280_temperature;BME280_humidity;BME280_pressure;Samples;Min_cycle;Max_cycle;Signal;HPM_P1;HPM_P2
2023/07/06 00:02:08;;;;;;;14.40;9.05;;;;;;;13.92;100.00;101539.94;4937362;29;20063;-85
2023/07/06 00:04:36;;;;;;;11.35;8.18;;;;;;;13.85;100.00;101538.66;4937469;29;20046;-82
2023/07/06 00:07:01;;;;;;;12.82;8.10;;;;;;;13.89;100.00;101536.72;4937452;29;20426;-83
2023/07/06 00:09:27;;;;;;;11.02;7.82;;;;;;;13.83;100.00;101537.94;4937077;29;20024;-83
2023/07/06 00:11:52;;;;;;;15.00;8.43;;;;;;;13.76;100.00;101531.47;4937345;29;20171;-81
2023/07/06 00:14:18;;;;;;;12.18;7.70;;;;;;;13.61;100.00;101522.94;4936160;29;20091;-79
2023/07/06 00:16:47;;;;;;;12.60;7.45;;;;;;;13.54;100.00;101526.84;4937115;29;20032;-85
2023/07/06 00:19:19;;;;;;;12.57;7.63;;;;;;;13.40;100.00;101493.19;4935253;29;20042;-82
2023/07/06 00:21:45;;;;;;;12.43;7.18;;;;;;;13.39;100.00;101507.09;4927484;29;20024;-84
2023/07/06 00:24:10;;;;;;;12.55;7.40;;;;;;;13.54;100.00;101536.41;4918110;29;20479;-80
2023/07/06 00:26:35;;;;;;;11.82;7.22;;;;;;;13.34;100.00;101514.31;4917774;29;20032;-79
2023/07/06 00:29:01;;;;;;;11.95;7.40;;;;;;;13.19;100.00;101490.22;4917981;29;20052;-82
2023/07/06 00:31:32;;;;;;;11.27;6.90;;;;;;;13.47;100.00;101541.16;4917941;29;20035;-83
2023/07/06 00:34:03;;;;;;;11.68;7.13;;;;;;;13.41;100.00;101542.38;4916742;29;20040;-82
2023/07/06 00:36:35;;;;;;;13.50;6.68;;;;;;;13.13;100.00;101503.50;4917886;29;20394;-83
2023/07/06 00:39:02;;;;;;;10.70;6.70;;;;;;;13.30;100.00;101531.84;4918013;29;20108;-82
2023/07/06 00:41:29;;;;;;;14.77;6.57;;;;;;;13.06;100.00;101497.03;4917898;29;20378;-83
2023/07/06 00:43:56;;;;;;;11.13;6.60;;;;;;;12.93;100.00;101495.22;4923320;29;20039;-82
2023/07/06 00:46:26;;;;;;;10.95;6.40;;;;;;;13.15;100.00;101523.22;4936602;29;20038;-79
2023/07/06 00:48:54;;;;;;;11.97;5.93;;;;;;;13.10;100.00;101524.47;4936722;29;20028;-84
2023/07/06 00:51:23;;;;;;;10.85;5.88;;;;;;;13.01;100.00;101512.91;4936559;29;20757;-84
2023/07/06 00:53:53;;;;;;;10.07;5.78;;;;;;;13.07;100.00;101516.84;4936622;29;20074;-83
2023/07/06 00:56:25;;;;;;;10.90;5.88;;;;;;;13.08;100.00;101526.31;4936513;29;20058;-82
2023/07/06 00:59:04;;;;;;;11.93;6.43;;;;;;;13.13;100.00;101537.22;4936435;29;20035;-82
2023/07/06 01:01:32;;;;;;;13.15;5.53;;;;;;;13.18;100.00;101541.22;4936319;29;20090;-82
2023/07/06 01:04:01;;;;;;;13.00;5.72;;;;;;;13.17;100.00;101538.69;4936315;29;20391;-81
2023/07/06 01:06:29;;;;;;;10.63;5.35;;;;;;;13.17;100.00;101539.53;4936251;29;20111;-84
2023/07/06 01:08:57;;;;;;;12.05;5.95;;;;;;;13.07;100.00;101525.47;4936408;29;20401;-83
2023/07/06 01:11:28;;;;;;;8.95;5.07;;;;;;;13.11;100.00;101536.50;4936442;29;20032;-82
2023/07/06 01:13:57;;;;;;;9.13;5.43;;;;;;;13.08;100.00;101539.28;4936390;29;20034;-81
2023/07/06 01:16:31;;;;;;;11.13;4.93;;;;;;;13.05;100.00;101536.88;4936165;29;20769;-84
2023/07/06 01:19:28;;;;;;;12.82;5.53;;;;;;;12.97;100.00;101545.09;4936008;29;20175;-82
2023/07/06 01:22:38;;;;;;;11.50;4.78;;;;;;;12.89;100.00;101537.00;4936050;29;20029;-84
2023/07/06 01:25:45;;;;;;;8.88;4.85;;;;;;;12.82;100.00;101544.31;4936071;29;20028;-81
2023/07/06 01:28:59;;;;;;;12.68;4.78;;;;;;;12.75;100.00;101543.00;4935811;29;20392;-84
2023/07/06 01:31:56;;;;;;;10.75;5.13;;;;;;;11.97;100.00;101422.53;4935719;29;20607;-83
2023/07/06 01:34:59;;;;;;;9.65;4.72;;;;;;;11.83;100.00;101422.53;4935792;29;20091;-81
2023/07/06 01:37:29;;;;;;;9.73;5.30;;;;;;;12.04;100.00;101473.03;4935903;29;20028;-83
2023/07/06 01:40:13;;;;;;;9.10;5.00;;;;;;;11.98;100.00;101463.84;4935799;29;20028;-84
2023/07/06 01:42:59;;;;;;;9.93;4.85;;;;;;;12.41;100.00;101533.00;4935722;29;20038;-83
2023/07/06 01:45:28;;;;;;;10.98;4.55;;;;;;;11.88;100.00;101464.47;4900722;29;20056;-83
2023/07/06 01:48:18;;;;;;;9.25;5.07;;;;;;;11.47;100.00;101406.41;4916857;29;20119;-83
2023/07/06 01:51:22;;;;;;;11.13;4.93;;;;;;;10.95;100.00;101328.41;4886109;29;20038;-83
2023/07/06 01:54:17;;;;;;;8.32;4.45;;;;;;;10.84;100.00;101335.94;4916532;29;20487;-84
2023/07/06 01:57:18;;;;;;;9.35;4.70;;;;;;;10.86;100.00;101345.28;4858307;29;20045;-84
2023/07/06 02:00:34;;;;;;;11.48;5.10;;;;;;;12.12;100.00;101547.66;4858017;29;20026;-82
2023/07/06 02:03:01;;;;;;;13.45;4.65;;;;;;;12.06;100.00;101551.44;4831471;29;20045;-79
2023/07/06 02:05:36;;;;;;;10.18;4.55;;;;;;;11.41;100.00;101458.50;4858297;29;20034;-80
2023/07/06 02:08:10;;;;;;;7.18;4.32;;;;;;;10.71;100.00;101346.09;4857649;29;20041;-81
2023/07/06 02:10:38;;;;;;;9.52;4.88;;;;;;;11.80;100.00;101521.00;4858188;29;20106;-80
2023/07/06 02:13:13;;;;;;;9.63;4.47;;;;;;;11.19;100.00;101416.66;4873649;29;20037;-81
2023/07/06 02:15:40;;;;;;;9.38;4.80;;;;;;;11.64;100.00;101501.16;4857977;29;20093;-78
2023/07/06 02:18:08;;;;;;;10.48;4.80;;;;;;;10.54;100.00;101328.97;4858177;29;20090;-78
2023/07/06 02:20:52;;;;;;;10.13;4.30;;;;;;;11.05;100.00;101425.19;4858025;29;20037;-78
2023/07/06 02:23:18;;;;;;;8.38;4.63;;;;;;;11.83;100.00;101551.91;4857988;29;20129;-78
2023/07/06 02:25:44;;;;;;;9.55;5.22;;;;;;;11.72;100.00;101524.03;4858095;29;20057;-85
2023/07/06 02:28:10;;;;;;;9.75;4.40;;;;;;;11.87;100.00;101543.03;4857940;29;20046;-84
2023/07/06 02:30:37;;;;;;;11.85;4.32;;;;;;;11.83;100.00;101537.22;4857996;29;20044;-84
2023/07/06 02:33:03;;;;;;;9.43;4.03;;;;;;;11.80;100.00;101529.63;4872251;29;20040;-84
2023/07/06 02:35:28;;;;;;;7.53;4.35;;;;;;;11.83;100.00;101534.63;4916090;29;20438;-84
2023/07/06 02:37:54;;;;;;;10.40;4.75;;;;;;;11.74;100.00;101528.19;4916212;29;20474;-82
2023/07/06 02:40:19;;;;;;;11.38;4.63;;;;;;;11.77;100.00;101537.53;4916130;29;20080;-84
2023/07/06 02:42:45;;;;;;;10.20;4.72;;;;;;;11.73;100.00;101539.47;4916090;29;20064;-84
2023/07/06 02:45:23;;;;;;;10.30;4.35;;;;;;;11.06;100.00;101426.84;4928052;29;20044;-82
2023/07/06 02:47:58;;;;;;;8.48;3.97;;;;;;;10.82;100.00;101379.13;4934998;29;20095;-85
2023/07/06 02:50:33;;;;;;;11.27;4.35;;;;;;;11.77;100.00;101543.53;4935168;29;20501;-85
2023/07/06 02:53:05;;;;;;;9.52;4.38;;;;;;;11.31;100.00;101454.78;4935315;29;20481;-84
2023/07/06 02:55:38;;;;;;;9.65;4.60;;;;;;;10.61;100.00;101345.78;4935088;29;20473;-84
2023/07/06 02:58:37;;;;;;;11.07;4.65;;;;;;;11.87;100.00;101536.13;4933894;29;20476;-84
2023/07/06 03:01:08;;;;;;;9.70;3.88;;;;;;;11.94;100.00;101541.78;4934675;29;20399;-84
2023/07/06 03:03:33;;;;;;;10.57;4.70;;;;;;;11.92;100.00;101535.88;4934833;29;20525;-83
2023/07/06 03:06:01;;;;;;;9.77;4.50;;;;;;;12.02;100.00;101542.19;4917360;29;20036;-84
2023/07/06 03:08:27;;;;;;;9.75;4.82;;;;;;;12.02;100.00;101539.59;4934939;29;20054;-84
2023/07/06 03:10:57;;;;;;;10.80;4.60;;;;;;;11.35;100.00;101435.56;4934847;29;20059;-80
2023/07/06 03:13:25;;;;;;;11.52;4.63;;;;;;;12.06;100.00;101543.66;4934861;29;20029;-83
2023/07/06 03:15:51;;;;;;;12.18;4.60;;;;;;;12.09;100.00;101540.88;4934806;29;20035;-81
2023/07/06 03:18:18;;;;;;;9.35;4.53;;;;;;;12.11;100.00;101541.66;4934883;29;20028;-82
2023/07/06 03:20:48;;;;;;;13.43;4.43;;;;;;;12.15;100.00;101553.47;4938267;29;20034;-83
2023/07/06 03:23:13;;;;;;;9.70;4.80;;;;;;;12.20;100.00;101548.88;4938353;29;20118;-82
2023/07/06 03:25:38;;;;;;;11.38;4.63;;;;;;;12.06;100.00;101528.13;4938371;29;20102;-85
2023/07/06 03:28:06;;;;;;;9.85;4.72;;;;;;;11.99;100.00;101521.63;4948139;29;20031;-83
2023/07/06 03:30:35;;;;;;;9.90;4.47;;;;;;;12.13;100.00;101542.38;4957185;29;20027;-80
2023/07/06 03:33:00;;;;;;;11.88;4.63;;;;;;;12.21;100.00;101565.25;4957327;29;20054;-80
2023/07/06 03:35:26;;;;;;;6.97;4.00;;;;;;;12.11;100.00;101544.25;4939459;29;20071;-83
2023/07/06 03:37:58;;;;;;;11.20;4.28;;;;;;;12.30;100.00;101567.31;4957409;29;20023;-85
2023/07/06 03:40:27;;;;;;;10.20;4.72;;;;;;;11.97;100.00;101513.13;4957315;29;20031;-81
2023/07/06 03:42:56;;;;;;;9.13;4.93;;;;;;;11.74;100.00;101476.44;4956899;29;20027;-84
2023/07/06 03:45:23;;;;;;;12.35;4.82;;;;;;;12.31;100.00;101571.56;4957049;29;20059;-83
2023/07/06 03:47:50;;;;;;;8.65;3.85;;;;;;;12.07;100.00;101540.16;4956864;29;20082;-83
2023/07/06 03:50:20;;;;;;;12.38;4.97;;;;;;;12.33;100.00;101573.13;4957248;29;20050;-80
2023/07/06 03:52:46;;;;;;;9.82;4.00;;;;;;;12.34;100.00;101569.63;4956995;29;20034;-82
2023/07/06 03:55:19;;;;;;;8.48;4.55;;;;;;;12.35;100.00;101575.63;4956731;29;20393;-79
2023/07/06 03:57:45;;;;;;;13.40;4.57;;;;;;;12.38;100.00;101575.44;4956599;29;20031;-80
2023/07/06 04:00:23;;;;;;;11.93;4.55;;;;;;;12.25;100.00;101553.78;4956800;29;20027;-82
2023/07/06 04:02:52;;;;;;;11.13;4.80;;;;;;;11.71;100.00;101468.88;4956613;29;20035;-83
2023/07/06 04:05:22;;;;;;;12.60;4.45;;;;;;;12.41;100.00;101584.81;4956686;29;20034;-83
2023/07/06 04:07:52;;;;;;;10.68;4.55;;;;;;;12.45;100.00;101588.88;4956436;29;20035;-86
2023/07/06 04:10:22;;;;;;;16.77;4.57;;;;;;;12.43;100.00;101586.38;4939761;29;20087;-85
2023/07/06 04:12:50;;;;;;;10.50;4.25;;;;;;;12.23;100.00;101540.09;4956551;29;20504;-84
2023/07/06 04:15:20;;;;;;;10.60;4.20;;;;;;;12.11;100.00;101531.28;4956582;29;20090;-84
2023/07/06 04:17:52;;;;;;;10.13;4.68;;;;;;;12.28;100.00;101562.19;4956393;29;20042;-84
2023/07/06 04:20:20;;;;;;;10.77;4.20;;;;;;;12.35;100.00;101575.63;4956607;29;20367;-79
2023/07/06 04:22:51;;;;;;;11.98;4.40;;;;;;;12.10;100.00;101536.56;4956296;29;20381;-85
2023/07/06 04:25:21;;;;;;;13.38;4.93;;;;;;;12.47;100.00;101592.22;4956362;29;20102;-82
2023/07/06 04:27:47;;;;;;;9.20;3.88;;;;;;;12.33;100.00;101564.53;4939155;29;20460;-79
2023/07/06 04:30:14;;;;;;;12.82;5.05;;;;;;;12.43;100.00;101580.38;4955636;28;20055;-79
2023/07/06 04:32:41;;;;;;;13.77;4.38;;;;;;;12.52;100.00;101580.66;4956004;29;20027;-78
2023/07/06 04:35:11;;;;;;;13.70;4.38;;;;;;;12.58;100.00;101590.66;4956230;29;20035;-84
2023/07/06 04:37:37;;;;;;;13.55;4.70;;;;;;;12.52;100.00;101574.66;4955754;29;20062;-78
2023/07/06 04:40:12;;;;;;;9.77;4.55;;;;;;;12.42;100.00;101556.22;4956253;29;20470;-85
2023/07/06 04:42:40;;;;;;;10.35;4.45;;;;;;;12.71;100.00;101585.59;4955684;29;20075;-80
2023/07/06 04:45:15;;;;;;;10.70;4.60;;;;;;;12.74;100.00;101589.75;4956119;29;20430;-82
2023/07/06 04:47:41;;;;;;;9.63;4.20;;;;;;;12.69;100.00;101563.28;4938859;29;20114;-85
2023/07/06 04:50:24;;;;;;;9.15;5.07;;;;;;;13.01;100.00;101610.59;4938758;29;20023;-79
2023/07/06 04:53:08;;;;;;;11.90;5.63;;;;;;;12.29;100.00;101487.94;4955811;29;20465;-84
2023/07/06 04:55:37;;;;;;;10.88;5.18;;;;;;;12.09;100.00;101450.28;4955823;29;20024;-83
2023/07/06 04:58:05;;;;;;;11.68;5.10;;;;;;;12.63;100.00;101542.00;4955875;29;20038;-83
2023/07/06 05:00:51;;;;;;;13.80;5.63;;;;;;;12.56;100.00;101529.47;4938478;29;20100;-83
2023/07/06 05:03:16;;;;;;;15.45;6.10;;;;;;;12.74;100.00;101572.44;4955482;29;20462;-83
2023/07/06 05:05:45;;;;;;;13.95;6.32;;;;;;;11.92;100.00;101415.06;4955725;29;20030;-83
2023/07/06 05:08:16;;;;;;;14.23;6.05;;;;;;;13.19;100.00;101609.50;4955635;29;20055;-83
2023/07/06 05:10:46;;;;;;;13.60;5.95;;;;;;;13.37;100.00;101613.56;4938248;29;20024;-83
2023/07/06 05:13:21;;;;;;;14.00;6.63;;;;;;;13.15;100.00;101569.06;4955424;29;20031;-84
2023/07/06 05:15:50;;;;;;;14.73;6.82;;;;;;;13.62;100.00;101612.00;4955147;29;20488;-84
2023/07/06 05:28:50;;;;;;;13.20;6.53;;;;;;;15.06;100.00;101621.53;4955271;29;20126;-86
2023/07/06 05:31:23;;;;;;;14.85;6.15;;;;;;;14.32;97.13;101465.38;4954921;29;20020;-85
2023/07/06 05:33:49;;;;;;;15.80;7.78;;;;;;;15.35;95.94;101637.72;4954619;29;20111;-84
2023/07/06 05:36:38;;;;;;;15.48;7.57;;;;;;;14.38;96.87;101434.72;4954872;29;20025;-85
2023/07/06 05:39:08;;;;;;;11.98;6.10;;;;;;;14.97;94.04;101443.53;4954816;29;20557;-81
2023/07/06 05:41:49;;;;;;;11.45;6.43;;;;;;;15.97;92.42;101547.28;4954009;28;20057;-79
2023/07/06 05:44:29;;;;;;;14.07;6.35;;;;;;;16.16;91.49;101556.34;4934123;29;20126;-77
2023/07/06 05:46:55;;;;;;;14.57;7.93;;;;;;;15.77;89.89;101491.47;4935521;29;20027;-85
2023/07/06 05:49:23;;;;;;;16.00;6.88;;;;;;;15.86;89.08;101502.16;4935197;29;20281;-79
2023/07/06 05:51:51;;;;;;;15.18;7.82;;;;;;;15.52;89.48;101452.53;4934367;29;20031;-88
2023/07/06 05:54:16;;;;;;;14.00;6.85;;;;;;;15.97;89.29;101507.38;4935375;29;20398;-87
2023/07/06 05:56:52;;;;;;;;;;;;;;;;;;;;;
2023/07/06 05:59:19;;;;;;;18.33;8.77;;;;;;;16.14;89.72;101566.88;4934778;29;20035;-87
2023/07/06 06:01:59;;;;;;;17.48;8.95;;;;;;;16.19;89.62;101575.19;4927823;29;20035;-79
2023/07/06 06:04:53;;;;;;;14.05;7.70;;;;;;;16.81;89.41;101644.41;4935470;29;20028;-83
2023/07/06 06:07:19;;;;;;;16.35;9.38;;;;;;;16.08;88.17;101503.97;4935353;29;20027;-89
2023/07/06 06:10:03;;;;;;;18.65;9.38;;;;;;;16.25;87.39;101478.31;4935334;29;20039;-81
2023/07/06 06:12:35;;;;;;;16.60;10.02;;;;;;;16.15;85.12;101464.31;4933591;29;20022;-76
2023/07/06 06:15:10;;;;;;;16.13;8.68;;;;;;;16.80;85.61;101573.16;4936080;29;20027;-79
2023/07/06 06:17:37;;;;;;;22.58;10.23;;;;;;;17.10;84.77;101561.28;4934050;29;20020;-80
2023/07/06 06:20:14;;;;;;;16.33;8.82;;;;;;;17.61;83.52;101587.66;4934902;29;20026;-80
2023/07/06 06:22:59;;;;;;;18.00;9.40;;;;;;;18.33;82.37;101668.03;4935160;29;20032;-81
2023/07/06 06:25:39;;;;;;;17.00;9.15;;;;;;;17.95;79.66;101490.84;4935092;29;20024;-85
2023/07/06 06:28:08;;;;;;;19.23;9.30;;;;;;;19.61;73.85;101594.25;4934746;29;20032;-83
2023/07/06 06:30:42;;;;;;;17.75;9.23;;;;;;;20.45;69.19;101586.63;4935051;29;20359;-81
2023/07/06 06:33:17;;;;;;;18.42;9.45;;;;;;;20.97;66.17;101594.84;4934795;29;20381;-80
2023/07/06 06:36:14;;;;;;;17.83;9.43;;;;;;;21.45;68.69;101673.44;4917681;29;20036;-81
2023/07/06 06:38:55;;;;;;;17.73;8.73;;;;;;;20.79;66.78;101496.84;4934942;29;20074;-78
2023/07/06 06:44:14;;;;;;;14.10;7.70;;;;;;;23.04;56.75;101540.94;4936108;29;20102;-80
2023/07/06 06:46:50;;;;;;;14.23;7.32;;;;;;;24.40;58.00;101692.63;4953824;29;20401;-79
2023/07/06 06:49:15;;;;;;;16.23;8.52;;;;;;;22.71;54.28;101501.28;4953834;29;20034;-79
2023/07/06 06:51:40;;;;;;;16.65;7.13;;;;;;;22.89;56.97;101630.25;4953805;29;20023;-76
2023/07/06 06:54:06;;;;;;;13.55;7.35;;;;;;;22.04;59.24;101630.00;4956599;28;20030;-77
2023/07/06 06:56:35;;;;;;;14.63;8.15;;;;;;;21.74;61.25;101693.47;4957641;29;20102;-77
2023/07/06 06:59:01;;;;;;;16.15;8.55;;;;;;;22.00;61.99;101646.22;4957888;29;20051;-77
2023/07/06 07:01:46;;;;;;;14.70;7.88;;;;;;;22.50;61.75;101695.66;4940413;29;20502;-78
2023/07/06 07:04:12;;;;;;;15.93;9.10;;;;;;;21.25;63.90;101663.97;4955703;29;20091;-77
2023/07/06 07:06:40;;;;;;;18.65;10.02;;;;;;;20.94;65.07;101696.72;4957816;29;20027;-73
2023/07/06 07:09:09;;;;;;;19.05;9.75;;;;;;;20.78;67.10;101671.91;4941270;29;20058;-79
2023/07/06 07:11:36;;;;;;;17.27;9.27;;;;;;;21.45;63.86;101670.00;4940090;29;20106;-78
2023/07/06 07:14:02;;;;;;;15.93;9.27;;;;;;;21.73;63.09;101702.34;4940195;29;20091;-77
2023/07/06 07:16:27;;;;;;;17.73;9.98;;;;;;;21.33;64.15;101679.03;4957615;29;20477;-77
2023/07/06 07:18:54;;;;;;;16.00;9.88;;;;;;;20.79;65.41;101665.66;4957365;29;20098;-78
2023/07/06 07:21:19;;;;;;;17.98;9.65;;;;;;;21.35;64.82;101670.06;4956881;29;20034;-76
2023/07/06 07:23:48;;;;;;;17.20;10.90;;;;;;;22.48;62.19;101698.44;4956911;29;20038;-75
2023/07/06 07:26:22;;;;;;;12.65;8.57;;;;;;;22.55;60.73;101709.19;4957256;29;20023;-76
2023/07/06 07:28:48;;;;;;;15.35;9.07;;;;;;;21.69;61.35;101666.78;4957084;29;20033;-77
2023/07/06 07:31:17;;;;;;;15.45;9.48;;;;;;;21.27;64.76;101706.72;4956481;29;20043;-79
2023/07/06 07:33:44;;;;;;;16.75;10.07;;;;;;;20.71;66.37;101681.31;4957242;29;20535;-77
2023/07/06 07:36:11;;;;;;;16.60;10.10;;;;;;;20.66;67.49;101694.03;4956696;29;20035;-78
2023/07/06 07:38:38;;;;;;;15.65;10.07;;;;;;;20.92;67.28;101731.00;4957032;29;20486;-78
2023/07/06 07:41:06;;;;;;;14.75;10.07;;;;;;;21.05;65.91;101707.06;4956918;29;20031;-79
2023/07/06 07:43:33;;;;;;;18.30;12.02;;;;;;;21.60;65.05;101720.25;4956840;29;20043;-79
2023/07/06 07:46:03;;;;;;;14.60;10.50;;;;;;;21.60;65.06;101722.88;4956924;29;20094;-79
2023/07/06 07:48:29;;;;;;;18.35;11.88;;;;;;;21.34;65.05;101702.56;4956887;29;20042;-77
2023/07/06 07:51:01;;;;;;;19.88;13.13;;;;;;;21.13;65.71;101736.88;4956665;29;20027;-77
2023/07/06 07:53:26;;;;;;;;;;;;;;;21.23;66.20;101726.31;4957285;29;20108;-79
2023/07/06 07:55:54;;;;;;;18.27;12.68;;;;;;;20.76;67.17;101733.38;4956701;29;20399;-78
2023/07/06 07:58:22;;;;;;;18.10;12.00;;;;;;;20.66;67.83;101711.56;4939502;29;20393;-79
2023/07/06 08:00:49;;;;;;;15.25;11.48;;;;;;;20.37;68.13;101719.44;4955071;29;20393;-77
2023/07/06 08:03:14;;;;;;;23.35;12.80;;;;;;;20.14;69.32;101709.19;4939387;29;20148;-80
2023/07/06 08:05:40;;;;;;;17.92;12.40;;;;;;;20.52;70.04;101728.56;4938709;29;20031;-80
2023/07/06 08:08:06;;;;;;;16.77;11.38;;;;;;;20.81;69.64;101736.41;4956769;29;20023;-78
2023/07/06 08:10:36;;;;;;;26.88;13.63;;;;;;;21.17;68.35;101738.25;4956328;29;20034;-79
2023/07/06 08:13:03;;;;;;;18.48;12.50;;;;;;;21.34;66.46;101731.47;4956589;29;20114;-79
2023/07/06 08:15:29;;;;;;;18.60;13.45;;;;;;;21.40;66.47;101736.13;4939496;29;20024;-78
2023/07/06 08:17:59;;;;;;;22.35;15.00;;;;;;;21.48;67.69;101733.59;4940919;23;20050;-78
2023/07/06 08:20:28;;;;;;;21.35;14.27;;;;;;;21.62;67.83;101729.63;4918147;29;20039;-78
2023/07/06 08:22:55;;;;;;;18.38;13.23;;;;;;;21.64;66.40;101738.22;4918056;29;20363;-79
2023/07/06 08:25:21;;;;;;;18.45;12.60;;;;;;;21.42;66.29;101733.34;4917646;29;20060;-79
2023/07/06 08:27:46;;;;;;;16.98;10.15;;;;;;;21.18;66.34;101733.81;4917761;29;20455;-78
2023/07/06 08:30:12;;;;;;;15.48;11.38;;;;;;;20.98;67.52;101733.06;4918242;29;20052;-77
2023/07/06 08:32:37;;;;;;;18.80;13.10;;;;;;;20.73;69.64;101715.28;4917987;29;20039;-77
2023/07/06 08:35:04;;;;;;;18.25;14.07;;;;;;;20.83;69.83;101724.78;4917205;29;20036;-75
2023/07/06 08:37:29;;;;;;;17.05;12.30;;;;;;;20.98;68.58;101734.84;4917651;29;20032;-78
2023/07/06 08:39:54;;;;;;;20.80;12.13;;;;;;;21.06;68.10;101720.03;4918011;29;20031;-77
2023/07/06 08:42:21;;;;;;;18.77;11.38;;;;;;;21.34;69.51;101746.41;4917840;29;20032;-78
2023/07/06 08:44:52;;;;;;;20.60;10.82;;;;;;;21.29;68.07;101741.56;4917736;29;20091;-78
2023/07/06 08:47:18;;;;;;;17.48;10.30;;;;;;;21.22;68.77;101760.63;4917600;29;20024;-77
2023/07/06 08:49:43;;;;;;;16.27;9.55;;;;;;;20.89;67.30;101724.22;4917564;29;20036;-78
2023/07/06 08:52:14;;;;;;;20.90;10.45;;;;;;;20.69;69.21;101761.97;4921670;29;20054;-76
2023/07/06 08:54:41;;;;;;;18.85;10.48;;;;;;;20.48;70.22;101728.03;4937270;29;20473;-75
2023/07/06 08:57:17;;;;;;;19.13;11.10;;;;;;;20.52;70.28;101754.81;4919115;29;20036;-75
2023/07/06 08:59:45;;;;;;;15.35;9.10;;;;;;;20.51;72.23;101751.34;4936567;29;20032;-77
2023/07/06 09:02:20;;;;;;;14.43;10.18;;;;;;;20.33;71.33;101743.31;4936270;29;20094;-77
2023/07/06 09:04:47;;;;;;;16.95;10.45;;;;;;;20.59;73.37;101755.91;4936582;29;20027;-75
2023/07/06 09:07:15;;;;;;;17.20;10.50;;;;;;;20.77;70.21;101719.28;4936292;29;20107;-76
2023/07/06 09:09:42;;;;;;;14.57;11.32;;;;;;;21.12;68.71;101755.41;4936443;29;20038;-77
2023/07/06 09:12:33;;;;;;;17.42;11.55;;;;;;;21.35;71.02;101761.19;4936311;29;20102;-74
2023/07/06 09:15:00;;;;;;;16.17;9.25;;;;;;;21.52;69.18;101742.00;4936344;29;20032;-79
2023/07/06 09:17:27;;;;;;;13.27;9.77;;;;;;;21.81;66.43;101768.13;4936009;29;20048;-81
2023/07/06 09:19:56;;;;;;;16.90;10.95;;;;;;;21.90;64.12;101764.63;4936245;29;20023;-76
2023/07/06 09:22:23;;;;;;;17.88;9.80;;;;;;;21.82;63.45;101761.09;4935771;29;20028;-78
2023/07/06 09:24:49;;;;;;;15.35;9.90;;;;;;;21.64;66.17;101753.19;4936297;29;20062;-78
2023/07/06 09:27:28;;;;;;;16.58;9.40;;;;;;;21.68;65.60;101767.66;4936027;29;20493;-78
2023/07/06 09:30:02;;;;;;;13.35;8.60;;;;;;;21.66;65.68;101769.63;4936032;29;20024;-77
2023/07/06 09:32:32;;;;;;;13.43;8.27;;;;;;;21.67;66.28;101758.97;4936234;29;20028;-78
2023/07/06 09:35:04;;;;;;;13.73;8.10;;;;;;;21.90;67.47;101751.47;4936048;29;20024;-78
2023/07/06 09:37:29;;;;;;;13.55;8.63;;;;;;;22.00;65.41;101767.19;4936001;29;20027;-78
2023/07/06 09:40:05;;;;;;;13.15;7.78;;;;;;;21.91;63.17;101741.78;4935724;29;20118;-79
2023/07/06 09:42:33;;;;;;;12.43;9.10;;;;;;;21.85;62.19;101763.44;4934363;29;20097;-77
2023/07/06 09:45:01;;;;;;;11.43;8.05;;;;;;;21.73;64.34;101774.16;4936194;29;20032;-78
2023/07/06 09:47:29;;;;;;;13.32;8.60;;;;;;;21.14;63.18;101738.56;4936176;29;20042;-75
2023/07/06 09:49:59;;;;;;;11.82;7.35;;;;;;;20.91;65.88;101747.72;4935736;29;20023;-75
2023/07/06 09:52:25;;;;;;;11.90;7.88;;;;;;;20.58;66.19;101741.97;4935598;29;20028;-77
2023/07/06 09:55:16;;;;;;;12.70;7.10;;;;;;;20.74;67.69;101782.56;4935694;29;20513;-76
2023/07/06 09:57:42;;;;;;;11.43;6.65;;;;;;;20.56;65.97;101767.53;4935731;29;20035;-79
2023/07/06 10:00:16;;;;;;;11.15;6.40;;;;;;;20.39;65.83;101736.69;4935749;29;20035;-78
2023/07/06 10:03:11;;;;;;;10.73;6.22;;;;;;;20.86;66.77;101771.78;4935437;29;20477;-79
2023/07/06 10:05:44;;;;;;;10.98;6.18;;;;;;;21.09;66.46;101735.50;4935522;29;20028;-79
2023/07/06 10:08:20;;;;;;;12.50;6.05;;;;;;;21.65;66.95;101770.59;4935562;29;20084;-80
2023/07/06 10:11:25;;;;;;;11.07;5.60;;;;;;;21.97;63.30;101770.97;4935531;29;20051;-78
2023/07/06 10:13:51;;;;;;;9.05;4.75;;;;;;;22.11;61.88;101771.47;4920693;29;20756;-76
2023/07/06 10:16:32;;;;;;;11.02;4.90;;;;;;;21.93;59.95;101732.81;4935569;29;20038;-76
2023/07/06 10:19:09;;;;;;;11.57;5.05;;;;;;;21.81;58.50;101747.09;4935296;29;20044;-76
2023/07/06 10:21:45;;;;;;;9.93;4.72;;;;;;;21.80;59.95;101748.09;4935229;29;20027;-76
2023/07/06 10:24:37;;;;;;;12.15;4.60;;;;;;;21.94;61.21;101768.63;4934829;29;20037;-76
2023/07/06 10:27:09;;;;;;;12.20;4.35;;;;;;;22.16;61.84;101759.53;4935495;29;20083;-74
2023/07/06 10:29:41;;;;;;;;;;;;;;;22.39;60.70;101754.63;4941965;29;20079;-75
2023/07/06 10:32:14;;;;;;;7.47;4.05;;;;;;;22.27;60.02;101732.16;4941571;29;20359;-75
2023/07/06 10:34:46;;;;;;;8.32;3.60;;;;;;;22.30;58.55;101726.59;4924604;29;20023;-76
2023/07/06 10:37:13;;;;;;;8.75;3.40;;;;;;;;;;4941480;29;20034;-76
2023/07/06 10:39:45;;;;;;;6.88;2.90;;;;;;;22.32;55.24;101761.50;4941287;29;20534;-77
2023/07/06 10:42:23;;;;;;;;;;;;;;;22.40;55.96;101753.66;4940922;29;20038;-76
2023/07/06 10:44:51;;;;;;;6.63;3.08;;;;;;;22.18;54.39;101754.94;4942238;29;19948;-76
2023/07/06 10:47:29;;;;;;;8.90;2.97;;;;;;;22.44;54.62;101752.38;4941341;29;20075;-76
2023/07/06 10:50:12;;;;;;;6.45;2.78;;;;;;;22.36;55.88;101723.34;4924470;29;20031;-80
2023/07/06 10:52:40;;;;;;;8.60;2.50;;;;;;;22.58;54.25;101757.09;4941242;29;20027;-76
2023/07/06 10:55:12;;;;;;;9.35;2.83;;;;;;;22.86;55.60;101749.94;4941025;29;20031;-75
2023/07/06 10:57:48;;;;;;;5.97;2.35;;;;;;;23.19;52.55;101750.13;4941247;29;20027;-78
2023/07/06 11:00:16;;;;;;;7.13;2.10;;;;;;;23.27;51.24;101738.81;4941436;29;20023;-77
2023/07/06 11:02:44;;;;;;;5.97;2.30;;;;;;;23.65;51.77;101763.88;4941097;29;20032;-75
2023/07/06 11:05:15;;;;;;;5.03;2.28;;;;;;;23.60;51.18;101774.91;4941304;29;20085;-74
2023/07/06 11:07:42;;;;;;;6.10;2.60;;;;;;;23.41;50.62;101767.22;4924064;29;20035;-75
2023/07/06 11:10:32;;;;;;;6.53;2.60;;;;;;;23.31;51.33;101774.41;4940734;29;20051;-78
2023/07/06 11:13:04;;;;;;;8.20;2.83;;;;;;;23.06;49.83;101773.44;4941338;29;20035;-77
2023/07/06 11:15:35;;;;;;;7.18;2.50;;;;;;;22.99;52.21;101772.41;4941137;29;20024;-77
2023/07/06 11:18:07;;;;;;;;;;;;;;;23.18;52.74;101777.47;4941547;29;20048;-76
2023/07/06 11:20:32;;;;;;;7.75;2.70;;;;;;;22.99;51.82;101770.59;4941070;29;19978;-76
2023/07/06 11:23:02;;;;;;;9.82;3.22;;;;;;;22.83;50.58;101775.72;4940541;29;20036;-76
2023/07/06 11:25:31;;;;;;;10.25;2.85;;;;;;;22.49;51.52;101779.06;4941163;29;20036;-76
2023/07/06 11:28:01;;;;;;;7.43;2.70;;;;;;;22.20;57.64;101795.06;4940958;29;20465;-75
2023/07/06 11:30:43;;;;;;;6.57;2.72;;;;;;;21.83;54.28;101792.50;4941129;29;20032;-77
2023/07/06 11:33:24;;;;;;;6.97;2.35;;;;;;;21.87;55.79;101796.50;4940824;29;20516;-76
2023/07/06 11:35:54;;;;;;;;;;;;;;;22.11;56.44;101795.13;4941685;29;20047;-77
2023/07/06 11:38:28;;;;;;;7.50;2.55;;;;;;;22.23;55.24;101789.53;4940949;29;20314;-76
2023/07/06 11:41:09;;;;;;;5.18;2.33;;;;;;;22.50;56.38;101791.25;4935747;29;20027;-76
2023/07/06 11:43:52;;;;;;;5.65;2.42;;;;;;;22.53;54.15;101801.50;4938618;29;20103;-76
2023/07/06 11:46:33;;;;;;;9.50;2.78;;;;;;;22.50;52.85;101801.78;4937986;29;20042;-76
2023/07/06 11:49:02;;;;;;;6.65;2.47;;;;;;;22.32;54.81;101806.22;4937873;29;20478;-75
2023/07/06 11:51:31;;;;;;;9.45;2.70;;;;;;;22.09;55.71;101783.94;4920401;29;20398;-74
2023/07/06 11:53:59;;;;;;;7.80;2.75;;;;;;;22.11;55.23;101805.66;4937648;29;20028;-75